sensor_id;sensor_type;location;lat;lon;timestamp;P1;durP1;ratioP1;P2;durP2;ratioP2
52396;SDS011;38322;53.108;6.308;2023-04-01T05:03:10;21.27;;;13.52;;
52396;SDS011;38322;53.108;6.308;2023-04-01T05:05:37;23.23;;;14.07;;
52396;SDS011;38322;53.108;6.308;2023-04-01T05:08:04;22.23;;;15.15;;
52396;SDS011;38322;53.108;6.308;2023-04-01T05:10:30;22.58;;;14.55;;
52396;SDS011;38322;53.108;6.308;2023-04-01T05:12:57;23.48;;;14.85;;
52396;SDS011;38322;53.108;6.308;2023-04-01T05:15:23;21.05;;;14.68;;
52396;SDS011;38322;53.108;6.308;2023-04-01T05:17:49;24.33;;;13.50;;
52396;SDS011;38322;53.108;6.308;2023-04-01T05:20:16;25.15;;;14.82;;
52396;SDS011;38322;53.108;6.308;2023-04-01T05:22:42;21.27;;;14.27;;
52396;SDS011;38322;53.108;6.308;2023-04-01T05:25:08;21.23;;;13.48;;
52396;SDS011;38322;53.108;6.308;2023-04-01T05:27:34;20.10;;;13.93;;
52396;SDS011;38322;53.108;6.308;2023-04-01T05:30:01;22.63;;;14.00;;
52396;SDS011;38322;53.108;6.308;2023-04-01T05:32:27;21.45;;;14.15;;
52396;SDS011;38322;53.108;6.308;2023-04-01T05:34:53;20.50;;;13.75;;
52396;SDS011;38322;53.108;6.308;2023-04-01T05:37:19;24.23;;;14.68;;
52396;SDS011;38322;53.108;6.308;2023-04-01T05:39:45;19.13;;;12.68;;
52396;SDS011;38322;53.108;6.308;2023-04-01T05:42:11;22.73;;;14.75;;
52396;SDS011;38322;53.108;6.308;2023-04-01T05:44:37;25.58;;;15.15;;
52396;SDS011;38322;53.108;6.308;2023-04-01T05:47:03;17.08;;;11.75;;
52396;SDS011;38322;53.108;6.308;2023-04-01T05:49:29;19.73;;;12.52;;
52396;SDS011;38322;53.108;6.308;2023-04-01T05:51:56;16.13;;;12.13;;
52396;SDS011;38322;53.108;6.308;2023-04-01T05:54:22;18.02;;;12.32;;
52396;SDS011;38322;53.108;6.308;2023-04-01T05:56:48;17.95;;;11.85;;
52396;SDS011;38322;53.108;6.308;2023-04-01T05:59:14;15.40;;;11.40;;
52396;SDS011;38322;53.108;6.308;2023-04-01T06:01:40;16.27;;;11.00;;
52396;SDS011;38322;53.108;6.308;2023-04-01T06:04:09;16.02;;;10.38;;
52396;SDS011;38322;53.108;6.308;2023-04-01T06:06:38;15.07;;;9.77;;
52396;SDS011;38322;53.108;6.308;2023-04-01T06:09:10;14.60;;;9.65;;
52396;SDS011;38322;53.108;6.308;2023-04-01T06:11:43;13.95;;;9.57;;
52396;SDS011;38322;53.108;6.308;2023-04-01T06:14:33;11.38;;;8.35;;
52396;SDS011;38322;53.108;6.308;2023-04-01T06:17:26;17.63;;;8.40;;
52396;SDS011;38322;53.108;6.308;2023-04-01T06:30:45;8.95;;;6.88;;
52396;SDS011;38322;53.108;6.308;2023-04-01T06:36:00;10.23;;;6.90;;
52396;SDS011;38322;53.108;6.308;2023-04-01T06:38:49;10.45;;;7.15;;
52396;SDS011;38322;53.108;6.308;2023-04-01T06:46:53;9.55;;;6.10;;
52396;SDS011;38322;53.108;6.308;2023-04-01T06:49:33;9.20;;;6.88;;
52396;SDS011;38322;53.108;6.308;2023-04-01T06:52:09;9.60;;;7.13;;
52396;SDS011;38322;53.108;6.308;2023-04-01T06:54:39;9.73;;;7.70;;
52396;SDS011;38322;53.108;6.308;2023-04-01T06:57:18;10.98;;;7.20;;
52396;SDS011;38322;53.108;6.308;2023-04-01T06:59:50;9.82;;;7.30;;
52396;SDS011;38322;53.108;6.308;2023-04-01T07:02:22;10.60;;;8.10;;
52396;SDS011;38322;53.108;6.308;2023-04-01T07:04:48;10.75;;;8.32;;
52396;SDS011;38322;53.108;6.308;2023-04-01T07:07:33;15.48;;;9.45;;
52396;SDS011;38322;53.108;6.308;2023-04-01T07:10:05;14.20;;;9.82;;
52396;SDS011;38322;53.108;6.308;2023-04-01T07:12:41;13.13;;;9.75;;
52396;SDS011;38322;53.108;6.308;2023-04-01T07:15:22;13.73;;;9.48;;
52396;SDS011;38322;53.108;6.308;2023-04-01T07:17:54;16.90;;;12.80;;
52396;SDS011;38322;53.108;6.308;2023-04-01T07:20:29;15.07;;;11.27;;
52396;SDS011;38322;53.108;6.308;2023-04-01T07:22:58;14.57;;;12.30;;
52396;SDS011;38322;53.108;6.308;2023-04-01T07:25:27;15.00;;;12.27;;
52396;SDS011;38322;53.108;6.308;2023-04-01T07:28:01;15.43;;;11.65;;
52396;SDS011;38322;53.108;6.308;2023-04-01T07:30:32;14.27;;;11.50;;
52396;SDS011;38322;53.108;6.308;2023-04-01T07:33:13;13.20;;;11.35;;
52396;SDS011;38322;53.108;6.308;2023-04-01T07:35:54;15.30;;;11.55;;
52396;SDS011;38322;53.108;6.308;2023-04-01T07:38:32;17.13;;;13.45;;
52396;SDS011;38322;53.108;6.308;2023-04-01T07:43:44;17.80;;;13.57;;
52396;SDS011;38322;53.108;6.308;2023-04-01T07:46:41;15.82;;;12.85;;
52396;SDS011;38322;53.108;6.308;2023-04-01T07:49:35;15.55;;;13.13;;
52396;SDS011;38322;53.108;6.308;2023-04-01T07:52:06;17.38;;;12.93;;
52396;SDS011;38322;53.108;6.308;2023-04-01T07:54:57;16.55;;;12.90;;
52396;SDS011;38322;53.108;6.308;2023-04-01T07:57:43;19.38;;;14.00;;
52396;SDS011;38322;53.108;6.308;2023-04-01T08:05:40;14.95;;;11.80;;
52396;SDS011;38322;53.108;6.308;2023-04-01T08:08:19;17.58;;;14.20;;
52396;SDS011;38322;53.108;6.308;2023-04-01T08:10:57;16.27;;;13.95;;
52396;SDS011;38322;53.108;6.308;2023-04-01T08:13:45;18.23;;;13.70;;
52396;SDS011;38322;53.108;6.308;2023-04-01T08:16:32;15.82;;;12.40;;
52396;SDS011;38322;53.108;6.308;2023-04-01T08:21:52;16.45;;;12.10;;
52396;SDS011;38322;53.108;6.308;2023-04-01T08:24:23;18.80;;;14.32;;
52396;SDS011;38322;53.108;6.308;2023-04-01T08:26:55;16.23;;;13.82;;
52396;SDS011;38322;53.108;6.308;2023-04-01T08:29:27;16.83;;;13.10;;
52396;SDS011;38322;53.108;6.308;2023-04-01T08:32:08;17.90;;;12.40;;
52396;SDS011;38322;53.108;6.308;2023-04-01T08:34:42;15.88;;;12.27;;
52396;SDS011;38322;53.108;6.308;2023-04-01T08:37:14;19.08;;;13.48;;
52396;SDS011;38322;53.108;6.308;2023-04-01T08:39:48;17.05;;;14.23;;
52396;SDS011;38322;53.108;6.308;2023-04-01T08:47:40;14.50;;;11.52;;
52396;SDS011;38322;53.108;6.308;2023-04-01T08:50:17;19.70;;;14.30;;
52396;SDS011;38322;53.108;6.308;2023-04-01T08:56:00;17.27;;;12.63;;
52396;SDS011;38322;53.108;6.308;2023-04-01T09:01:24;17.35;;;13.38;;
52396;SDS011;38322;53.108;6.308;2023-04-01T09:15:16;16.27;;;11.48;;
52396;SDS011;38322;53.108;6.308;2023-04-01T09:18:02;14.35;;;11.55;;
52396;SDS011;38322;53.108;6.308;2023-04-01T09:20:44;13.65;;;10.82;;
52396;SDS011;38322;53.108;6.308;2023-04-01T09:23:32;12.60;;;10.18;;
52396;SDS011;38322;53.108;6.308;2023-04-01T09:26:08;13.45;;;10.98;;
52396;SDS011;38322;53.108;6.308;2023-04-01T09:31:46;11.07;;;9.43;;
52396;SDS011;38322;53.108;6.308;2023-04-01T09:36:46;12.40;;;7.93;;
52396;SDS011;38322;53.108;6.308;2023-04-01T09:39:31;7.72;;;6.15;;
52396;SDS011;38322;53.108;6.308;2023-04-01T09:44:51;5.88;;;4.93;;
52396;SDS011;38322;53.108;6.308;2023-04-01T09:47:28;6.65;;;5.10;;
52396;SDS011;38322;53.108;6.308;2023-04-01T10:09:54;5.93;;;3.58;;
52396;SDS011;38322;53.108;6.308;2023-04-01T10:16:01;5.03;;;2.90;;
52396;SDS011;38322;53.108;6.308;2023-04-01T10:18:56;4.57;;;3.30;;
52396;SDS011;38322;53.108;6.308;2023-04-01T10:24:46;4.55;;;2.67;;
52396;SDS011;38322;53.108;6.308;2023-04-01T10:40:55;3.95;;;3.08;;
52396;SDS011;38322;53.108;6.308;2023-04-01T10:43:55;4.85;;;3.97;;
52396;SDS011;38322;53.108;6.308;2023-04-01T10:49:28;3.42;;;2.38;;
52396;SDS011;38322;53.108;6.308;2023-04-01T10:52:04;3.20;;;2.38;;
52396;SDS011;38322;53.108;6.308;2023-04-01T10:54:43;2.45;;;2.25;;
52396;SDS011;38322;53.108;6.308;2023-04-01T11:00:05;4.03;;;2.53;;
52396;SDS011;38322;53.108;6.308;2023-04-01T11:08:56;3.85;;;2.42;;
52396;SDS011;38322;53.108;6.308;2023-04-01T11:17:15;7.13;;;1.98;;
52396;SDS011;38322;53.108;6.308;2023-04-01T11:20:13;4.18;;;1.85;;
52396;SDS011;38322;53.108;6.308;2023-04-01T11:23:01;2.28;;;1.60;;
52396;SDS011;38322;53.108;6.308;2023-04-01T11:25:49;2.78;;;1.25;;
52396;SDS011;38322;53.108;6.308;2023-04-01T11:28:32;1.85;;;1.42;;
52396;SDS011;38322;53.108;6.308;2023-04-01T11:31:34;2.05;;;1.75;;
52396;SDS011;38322;53.108;6.308;2023-04-01T11:34:40;3.53;;;1.35;;
52396;SDS011;38322;53.108;6.308;2023-04-01T11:40:05;2.47;;;1.85;;
52396;SDS011;38322;53.108;6.308;2023-04-01T11:42:49;2.55;;;1.60;;
52396;SDS011;38322;53.108;6.308;2023-04-01T11:48:03;2.90;;;1.88;;
52396;SDS011;38322;53.108;6.308;2023-04-01T11:50:45;2.45;;;1.95;;
52396;SDS011;38322;53.108;6.308;2023-04-01T11:53:27;2.75;;;2.30;;
52396;SDS011;38322;53.108;6.308;2023-04-01T11:56:23;2.45;;;1.83;;
52396;SDS011;38322;53.108;6.308;2023-04-01T12:07:14;3.38;;;2.35;;
52396;SDS011;38322;53.108;6.308;2023-04-01T12:10:20;1.38;;;1.27;;
52396;SDS011;38322;53.108;6.308;2023-04-01T12:18:11;2.72;;;1.80;;
52396;SDS011;38322;53.108;6.308;2023-04-01T12:20:50;2.08;;;1.67;;
52396;SDS011;38322;53.108;6.308;2023-04-01T12:23:40;1.70;;;1.42;;
52396;SDS011;38322;53.108;6.308;2023-04-01T12:26:22;2.40;;;1.23;;
52396;SDS011;38322;53.108;6.308;2023-04-01T12:28:59;3.22;;;1.50;;
52396;SDS011;38322;53.108;6.308;2023-04-01T12:31:34;1.90;;;1.30;;
52396;SDS011;38322;53.108;6.308;2023-04-01T12:37:39;3.15;;;1.25;;
52396;SDS011;38322;53.108;6.308;2023-04-01T12:40:17;2.22;;;1.98;;
52396;SDS011;38322;53.108;6.308;2023-04-01T12:45:29;2.00;;;1.33;;
52396;SDS011;38322;53.108;6.308;2023-04-01T12:48:19;2.80;;;1.70;;
52396;SDS011;38322;53.108;6.308;2023-04-01T12:53:40;1.38;;;1.10;;
52396;SDS011;38322;53.108;6.308;2023-04-01T13:01:50;3.08;;;1.17;;
52396;SDS011;38322;53.108;6.308;2023-04-01T13:07:34;1.95;;;1.27;;
52396;SDS011;38322;53.108;6.308;2023-04-01T13:10:27;1.80;;;1.30;;
52396;SDS011;38322;53.108;6.308;2023-04-01T13:15:57;3.78;;;1.90;;
52396;SDS011;38322;53.108;6.308;2023-04-01T13:18:39;1.92;;;1.75;;
52396;SDS011;38322;53.108;6.308;2023-04-01T13:21:30;2.88;;;1.90;;
52396;SDS011;38322;53.108;6.308;2023-04-01T13:29:56;2.00;;;1.50;;
52396;SDS011;38322;53.108;6.308;2023-04-01T13:32:30;1.48;;;1.33;;
52396;SDS011;38322;53.108;6.308;2023-04-01T13:40:59;2.25;;;1.27;;
52396;SDS011;38322;53.108;6.308;2023-04-01T13:49:28;4.32;;;1.35;;
52396;SDS011;38322;53.108;6.308;2023-04-01T13:52:06;0.95;;;0.80;;
52396;SDS011;38322;53.108;6.308;2023-04-01T13:54:53;2.30;;;1.73;;
52396;SDS011;38322;53.108;6.308;2023-04-01T13:57:38;1.48;;;1.08;;
52396;SDS011;38322;53.108;6.308;2023-04-01T14:05:48;0.90;;;0.88;;
52396;SDS011;38322;53.108;6.308;2023-04-01T14:08:39;2.95;;;1.20;;
52396;SDS011;38322;53.108;6.308;2023-04-01T14:14:31;4.05;;;1.60;;
52396;SDS011;38322;53.108;6.308;2023-04-01T14:19:42;1.20;;;1.10;;
52396;SDS011;38322;53.108;6.308;2023-04-01T14:28:23;1.30;;;0.60;;
52396;SDS011;38322;53.108;6.308;2023-04-01T14:31:31;3.13;;;1.05;;
52396;SDS011;38322;53.108;6.308;2023-04-01T14:39:38;2.95;;;1.55;;
52396;SDS011;38322;53.108;6.308;2023-04-01T14:42:18;2.78;;;1.52;;
52396;SDS011;38322;53.108;6.308;2023-04-01T14:48:15;2.25;;;0.82;;
52396;SDS011;38322;53.108;6.308;2023-04-01T14:50:57;1.50;;;1.02;;
52396;SDS011;38322;53.108;6.308;2023-04-01T14:53:36;1.38;;;0.65;;
52396;SDS011;38322;53.108;6.308;2023-04-01T14:56:07;1.83;;;1.10;;
52396;SDS011;38322;53.108;6.308;2023-04-01T14:58:41;1.38;;;0.68;;
52396;SDS011;38322;53.108;6.308;2023-04-01T15:01:19;0.95;;;0.70;;
52396;SDS011;38322;53.108;6.308;2023-04-01T15:12:11;0.93;;;0.65;;
52396;SDS011;38322;53.108;6.308;2023-04-01T15:14:43;1.83;;;0.85;;
52396;SDS011;38322;53.108;6.308;2023-04-01T15:23:08;2.08;;;1.27;;
52396;SDS011;38322;53.108;6.308;2023-04-01T15:28:44;2.10;;;0.82;;
52396;SDS011;38322;53.108;6.308;2023-04-01T15:32:13;3.55;;;2.35;;
52396;SDS011;38322;53.108;6.308;2023-04-01T15:34:31;5.28;;;1.15;;
52396;SDS011;38322;53.108;6.308;2023-04-01T15:37:10;1.33;;;0.73;;
52396;SDS011;38322;53.108;6.308;2023-04-01T15:39:52;1.75;;;1.30;;
52396;SDS011;38322;53.108;6.308;2023-04-01T15:45:15;1.50;;;1.10;;
52396;SDS011;38322;53.108;6.308;2023-04-01T15:47:58;1.52;;;1.13;;
52396;SDS011;38322;53.108;6.308;2023-04-01T15:55:50;5.90;;;1.92;;
52396;SDS011;38322;53.108;6.308;2023-04-01T16:03:40;6.88;;;2.08;;
52396;SDS011;38322;53.108;6.308;2023-04-01T16:22:12;4.68;;;2.80;;
52396;SDS011;38322;53.108;6.308;2023-04-01T16:24:53;3.33;;;2.45;;
52396;SDS011;38322;53.108;6.308;2023-04-01T16:30:00;3.30;;;2.50;;
52396;SDS011;38322;53.108;6.308;2023-04-01T16:32:55;3.75;;;2.60;;
52396;SDS011;38322;53.108;6.308;2023-04-01T16:35:35;3.25;;;2.70;;
52396;SDS011;38322;53.108;6.308;2023-04-01T16:38:16;4.13;;;2.58;;
52396;SDS011;38322;53.108;6.308;2023-04-01T16:41:07;4.53;;;2.90;;
52396;SDS011;38322;53.108;6.308;2023-04-01T16:46:14;4.82;;;3.67;;
52396;SDS011;38322;53.108;6.308;2023-04-01T16:56:43;7.72;;;4.22;;
52396;SDS011;38322;53.108;6.308;2023-04-01T17:01:53;6.45;;;4.70;;
52396;SDS011;38322;53.108;6.308;2023-04-01T17:04:30;7.88;;;4.50;;
52396;SDS011;38322;53.108;6.308;2023-04-01T17:15:54;8.20;;;4.90;;
52396;SDS011;38322;53.108;6.308;2023-04-01T17:21:38;7.55;;;4.20;;
52396;SDS011;38322;53.108;6.308;2023-04-01T17:24:21;7.28;;;4.32;;
52396;SDS011;38322;53.108;6.308;2023-04-01T17:27:15;9.45;;;3.42;;
52396;SDS011;38322;53.108;6.308;2023-04-01T17:29:59;10.20;;;3.50;;
52396;SDS011;38322;53.108;6.308;2023-04-01T17:32:48;8.40;;;4.70;;
52396;SDS011;38322;53.108;6.308;2023-04-01T17:35:31;7.10;;;3.92;;
52396;SDS011;38322;53.108;6.308;2023-04-01T17:43:44;6.78;;;4.78;;
52396;SDS011;38322;53.108;6.308;2023-04-01T17:46:26;6.95;;;4.25;;
52396;SDS011;38322;53.108;6.308;2023-04-01T17:54:31;6.55;;;3.97;;
52396;SDS011;38322;53.108;6.308;2023-04-01T17:59:37;8.02;;;4.65;;
52396;SDS011;38322;53.108;6.308;2023-04-01T18:04:55;12.02;;;4.30;;
52396;SDS011;38322;53.108;6.308;2023-04-01T18:07:42;8.05;;;4.43;;
52396;SDS011;38322;53.108;6.308;2023-04-01T18:10:26;6.15;;;3.55;;
52396;SDS011;38322;53.108;6.308;2023-04-01T18:15:46;5.57;;;4.57;;
52396;SDS011;38322;53.108;6.308;2023-04-01T18:18:20;5.15;;;3.55;;
52396;SDS011;38322;53.108;6.308;2023-04-01T18:23:58;11.20;;;4.93;;
52396;SDS011;38322;53.108;6.308;2023-04-01T18:26:31;5.90;;;4.13;;
52396;SDS011;38322;53.108;6.308;2023-04-01T18:29:02;7.47;;;4.85;;
52396;SDS011;38322;53.108;6.308;2023-04-01T18:31:34;8.82;;;4.45;;
52396;SDS011;38322;53.108;6.308;2023-04-01T18:34:07;7.85;;;5.18;;
52396;SDS011;38322;53.108;6.308;2023-04-01T18:36:55;6.70;;;4.53;;
52396;SDS011;38322;53.108;6.308;2023-04-01T18:39:37;6.72;;;5.63;;
52396;SDS011;38322;53.108;6.308;2023-04-01T18:42:14;16.30;;;7.00;;
52396;SDS011;38322;53.108;6.308;2023-04-01T18:44:56;10.13;;;5.07;;
52396;SDS011;38322;53.108;6.308;2023-04-01T18:47:44;9.75;;;4.72;;
52396;SDS011;38322;53.108;6.308;2023-04-01T18:50:24;7.80;;;4.32;;
52396;SDS011;38322;53.108;6.308;2023-04-01T18:53:17;7.88;;;4.38;;
52396;SDS011;38322;53.108;6.308;2023-04-01T18:55:59;14.40;;;6.53;;
52396;SDS011;38322;53.108;6.308;2023-04-01T18:58:32;13.38;;;7.22;;
52396;SDS011;38322;53.108;6.308;2023-04-01T19:01:04;13.38;;;5.45;;
52396;SDS011;38322;53.108;6.308;2023-04-01T19:06:32;10.20;;;7.47;;
52396;SDS011;38322;53.108;6.308;2023-04-01T19:09:15;16.40;;;5.38;;
52396;SDS011;38322;53.108;6.308;2023-04-01T19:11:46;9.85;;;5.32;;
52396;SDS011;38322;53.108;6.308;2023-04-01T19:14:28;16.17;;;6.30;;
52396;SDS011;38322;53.108;6.308;2023-04-01T19:17:13;14.98;;;5.70;;
52396;SDS011;38322;53.108;6.308;2023-04-01T19:27:46;11.60;;;5.78;;
52396;SDS011;38322;53.108;6.308;2023-04-01T19:30:21;10.98;;;6.25;;
52396;SDS011;38322;53.108;6.308;2023-04-01T19:33:25;11.60;;;6.30;;
52396;SDS011;38322;53.108;6.308;2023-04-01T19:35:59;11.30;;;5.53;;
52396;SDS011;38322;53.108;6.308;2023-04-01T19:38:37;14.75;;;5.35;;
52396;SDS011;38322;53.108;6.308;2023-04-01T19:41:14;9.98;;;6.05;;
52396;SDS011;38322;53.108;6.308;2023-04-01T19:43:54;12.93;;;6.38;;
52396;SDS011;38322;53.108;6.308;2023-04-01T19:46:49;7.15;;;5.45;;
52396;SDS011;38322;53.108;6.308;2023-04-01T19:51:50;12.38;;;7.50;;
52396;SDS011;38322;53.108;6.308;2023-04-01T19:54:34;12.27;;;6.13;;
52396;SDS011;38322;53.108;6.308;2023-04-01T19:57:26;8.98;;;5.63;;
52396;SDS011;38322;53.108;6.308;2023-04-01T20:00:06;9.23;;;5.93;;
